Time;durP1;ratioP1;P1;durP2;ratioP2;P2;SDS_P1;SDS_P2;PMS_P1;PMS_P2;Temp;Humidity;BMP_temperature;BMP_pressure;BME280_temperature;BME280_humidity;BME280_pressure;Samples;Min_cycle;Max_cycle;Signal;HPM_P1;HPM_P2
2022/08/15 00:01:17;;;;;;;8.18;7.00;;;;;;;17.50;87.50;99147.17;1697022;83;21439;-63
2022/08/15 00:03:51;;;;;;;9.58;6.92;;;;;;;17.46;87.49;99148.41;1677489;83;20974;-62
2022/08/15 00:06:26;;;;;;;8.93;7.28;;;;;;;17.46;87.74;99140.49;1688232;83;20989;-63
2022/08/15 00:08:57;;;;;;;8.25;6.67;;;;;;;17.46;87.87;99144.45;1673616;84;20962;-63
2022/08/15 00:11:37;;;;;;;7.47;6.78;;;;;;;17.46;88.00;99137.85;1672748;84;21060;-62
2022/08/15 00:14:15;;;;;;;11.65;7.97;;;;;;;17.48;88.24;99138.56;1690692;83;20966;-62
2022/08/15 00:16:44;;;;;;;7.65;6.92;;;;;;;17.49;88.18;99145.50;1691067;83;20961;-62
2022/08/15 00:19:20;;;;;;;9.65;7.03;;;;;;;17.49;88.19;99140.23;1691817;83;20920;-62
2022/08/15 00:21:52;;;;;;;8.65;7.55;;;;;;;17.48;88.19;99140.37;1670057;84;20977;-64
2022/08/15 00:24:25;;;;;;;9.05;7.75;;;;;;;17.48;88.35;99140.37;1675338;84;21086;-62
2022/08/15 00:26:53;;;;;;;17.77;8.30;;;;;;;17.49;88.37;99135.44;1693671;83;20929;-63
2022/08/15 00:29:23;;;;;;;14.93;8.13;;;;;;;17.50;88.41;99142.38;1690263;83;23145;-63
2022/08/15 00:31:53;;;;;;;11.22;7.85;;;;;;;17.50;88.58;99140.57;1670941;84;20993;-63
2022/08/15 00:34:18;;;;;;;10.43;7.85;;;;;;;17.55;88.87;99142.34;1673304;84;21455;-62
2022/08/15 00:36:48;;;;;;;15.45;8.05;;;;;;;17.59;89.15;99141.13;1684460;84;21087;-62
2022/08/15 00:39:15;;;;;;;12.95;7.83;;;;;;;17.62;89.20;99140.86;1661730;84;20975;-62
2022/08/15 00:41:42;;;;;;;11.03;7.80;;;;;;;17.65;89.12;99143.23;1650657;85;20946;-62
2022/08/15 00:44:15;;;;;;;;;;;;;;;17.66;89.23;99140.11;1654546;85;20889;-63
2022/08/15 00:46:47;;;;;;;10.70;7.35;;;;;;;17.65;89.26;99143.23;1665519;85;20128;-62
2022/08/15 00:49:14;;;;;;;8.58;7.78;;;;;;;17.62;89.22;99143.50;1671215;85;21035;-62
2022/08/15 00:51:55;;;;;;;17.20;8.80;;;;;;;17.63;89.39;99139.87;1655404;85;20878;-62
2022/08/15 00:54:36;;;;;;;10.05;8.43;;;;;;;17.70;89.71;99143.31;1662406;85;20926;-62
2022/08/15 00:57:08;;;;;;;12.63;8.08;;;;;;;17.80;89.86;99153.47;1652307;85;20896;-62
2022/08/15 00:59:40;;;;;;;9.10;7.72;;;;;;;17.85;89.92;99143.36;1671484;84;20916;-63
2022/08/15 01:02:11;;;;;;;14.25;8.60;;;;;;;17.92;89.93;99147.61;1647758;84;21428;-62
2022/08/15 01:04:39;;;;;;;12.37;8.25;;;;;;;17.97;89.98;99148.88;1625920;86;20940;-62
2022/08/15 01:07:07;;;;;;;;;;;;;;;18.00;89.78;99147.78;1680348;84;20918;-63
2022/08/15 01:09:36;;;;;;;15.55;8.83;;;;;;;18.02;89.98;99140.56;1679960;84;20125;-63
2022/08/15 01:12:10;;;;;;;8.83;7.95;;;;;;;18.02;89.92;99145.36;1652301;84;20977;-62
2022/08/15 01:14:40;;;;;;;9.08;7.12;;;;;;;18.04;89.88;99140.78;1694303;83;21089;-63
2022/08/15 01:17:08;;;;;;;10.08;6.60;;;;;;;18.01;89.65;99143.70;1691572;84;20906;-63
2022/08/15 01:19:52;;;;;;;7.15;6.42;;;;;;;17.94;89.42;99146.51;1677092;84;20934;-63
2022/08/15 01:22:41;;;;;;;7.00;6.30;;;;;;;17.91;89.65;99156.02;1675801;84;21060;-63
2022/08/15 01:25:30;;;;;;;10.80;6.78;;;;;;;17.92;89.84;99144.48;1677682;83;20956;-63
2022/08/15 01:28:21;;;;;;;7.90;7.10;;;;;;;17.94;89.82;99150.47;1686965;84;21138;-62
2022/08/15 01:30:53;;;;;;;8.98;7.85;;;;;;;17.93;89.91;99144.84;1680164;84;21381;-63
2022/08/15 01:33:22;;;;;;;8.73;7.83;;;;;;;17.92;89.99;99145.80;1675857;84;20909;-63
2022/08/15 01:35:51;;;;;;;8.25;6.85;;;;;;;17.95;90.15;99136.28;1676528;84;20901;-63
2022/08/15 01:38:32;;;;;;;12.73;7.97;;;;;;;17.98;90.15;99133.41;1689284;82;20921;-63
2022/08/15 01:41:16;;;;;;;10.08;8.03;;;;;;;17.98;90.17;99133.41;1669269;84;22003;-63
2022/08/15 01:43:55;;;;;;;7.90;7.10;;;;;;;17.98;90.16;99133.41;1668755;85;20950;-62
2022/08/15 01:46:24;;;;;;;8.63;7.70;;;;;;;17.98;90.22;99137.36;1576525;88;20984;-63
2022/08/15 01:48:56;;;;;;;8.38;7.45;;;;;;;17.97;90.29;99133.52;1596870;88;21028;-63
2022/08/15 01:51:22;;;;;;;12.20;8.08;;;;;;;17.94;90.33;99131.98;1590469;89;21134;-62
2022/08/15 01:54:06;;;;;;;11.12;8.23;;;;;;;17.96;90.75;99130.05;1580810;89;21325;-63
2022/08/15 01:56:42;;;;;;;15.15;9.68;;;;;;;18.00;91.05;99125.33;1590509;89;21019;-62
2022/08/15 01:59:17;;;;;;;12.63;9.10;;;;;;;18.05;91.24;99127.91;1595746;87;20979;-62
2022/08/15 02:01:55;;;;;;;16.10;9.93;;;;;;;18.07;91.29;99120.70;1584498;89;21009;-63
2022/08/15 02:04:30;;;;;;;13.35;9.40;;;;;;;18.13;91.36;99123.28;1585038;88;21529;-63
2022/08/15 02:07:01;;;;;;;14.83;9.55;;;;;;;18.19;91.43;99108.70;1595596;88;21106;-62
2022/08/15 02:09:28;;;;;;;13.15;9.23;;;;;;;18.19;91.12;99113.98;1559429;91;21512;-63
2022/08/15 02:11:57;;;;;;;11.73;9.65;;;;;;;18.17;91.24;99108.82;1555607;89;21053;-63
2022/08/15 02:14:23;;;;;;;12.13;9.35;;;;;;;18.16;91.36;99106.33;1552345;91;22107;-63
2022/08/15 02:16:50;;;;;;;13.22;10.03;;;;;;;18.16;91.39;99111.62;1576539;89;20944;-63
2022/08/15 02:19:17;;;;;;;12.18;9.70;;;;;;;18.13;91.39;99107.92;1560858;90;21548;-62
2022/08/15 02:21:47;;;;;;;14.53;10.48;;;;;;;18.11;91.61;99104.91;1562673;90;20981;-62
2022/08/15 02:24:19;;;;;;;11.25;10.15;;;;;;;18.14;91.79;99108.27;1613971;87;20981;-63
2022/08/15 02:26:47;;;;;;;13.35;9.48;;;;;;;18.09;91.63;99106.88;1658287;86;20883;-63
2022/08/15 02:29:14;;;;;;;13.30;10.35;;;;;;;18.08;91.79;99102.55;1695625;83;20981;-63
2022/08/15 02:31:42;;;;;;;12.13;10.72;;;;;;;18.07;91.74;99100.89;1658869;84;21950;-63
2022/08/15 02:34:09;;;;;;;;;;;;;;;18.06;91.79;99107.16;1685999;84;20935;-63
2022/08/15 02:36:38;;;;;;;11.25;10.15;;;;;;;18.06;92.15;99103.19;1699329;84;20659;-63
2022/08/15 02:39:08;;;;;;;11.65;10.45;;;;;;;18.06;92.15;99105.83;1684336;84;20941;-62
2022/08/15 02:41:40;;;;;;;13.50;11.08;;;;;;;18.09;92.38;99105.56;1675225;85;21001;-63
2022/08/15 02:44:08;;;;;;;14.87;12.07;;;;;;;18.11;92.51;99098.80;1683554;84;22010;-62
2022/08/15 02:46:37;;;;;;;17.15;12.23;;;;;;;18.15;92.75;99096.72;1666619;84;20986;-62
2022/08/15 02:49:12;;;;;;;18.85;13.03;;;;;;;18.19;92.74;99101.61;1647304;85;20953;-62
2022/08/15 02:51:32;;;;;;;19.07;13.32;;;;;;;18.22;92.78;99097.86;1678537;84;20997;-62
2022/08/15 02:53:59;;;;;;;15.30;13.03;;;;;;;18.24;92.75;99093.28;1669441;84;27336;-62
2022/08/15 02:56:28;;;;;;;27.60;15.85;;;;;;;18.24;92.66;99101.20;1677594;84;21048;-63
2022/08/15 02:58:55;;;;;;;25.65;15.58;;;;;;;18.10;92.82;99083.44;1667466;84;20896;-62
2022/08/15 03:01:26;;;;;;;19.77;15.48;;;;;;;18.21;92.80;99100.16;1683451;84;21001;-62
2022/08/15 03:03:54;;;;;;;23.75;16.62;;;;;;;18.17;92.67;99092.14;1673548;83;20906;-63
2022/08/15 03:06:25;;;;;;;26.33;17.12;;;;;;;18.14;92.73;99093.73;1680120;83;20918;-63
2022/08/15 03:08:58;;;;;;;23.95;18.05;;;;;;;18.13;92.92;99088.94;1668668;84;21029;-62
2022/08/15 03:11:22;;;;;;;27.67;18.42;;;;;;;18.11;92.94;99089.55;1654492;85;21454;-62
2022/08/15 03:13:49;;;;;;;34.80;20.37;;;;;;;18.14;92.69;99082.67;1680086;84;20946;-62
2022/08/15 03:16:15;;;;;;;33.48;21.52;;;;;;;18.15;92.76;99087.47;1682008;83;20882;-62
2022/08/15 03:18:43;;;;;;;33.95;20.95;;;;;;;18.15;92.89;99090.11;1672637;85;20926;-62
2022/08/15 03:21:14;;;;;;;30.75;21.50;;;;;;;18.15;92.97;99088.79;1671421;84;21835;-62
2022/08/15 03:23:48;;;;;;;28.05;19.57;;;;;;;18.19;93.05;99082.28;1690521;83;20910;-62
2022/08/15 03:26:11;;;;;;;29.25;17.35;;;;;;;18.22;93.08;99079.36;1672594;84;21448;-62
2022/08/15 03:28:38;;;;;;;23.50;17.55;;;;;;;18.25;93.05;99084.38;1669891;84;20937;-62
2022/08/15 03:31:06;;;;;;;29.65;18.15;;;;;;;18.28;92.87;99084.09;1661649;85;20966;-62
2022/08/15 03:33:36;;;;;;;26.33;17.40;;;;;;;18.31;92.84;99091.74;1661061;85;21109;-62
2022/08/15 03:36:03;;;;;;;32.95;18.62;;;;;;;18.32;92.85;99086.83;1681302;83;20938;-62
2022/08/15 03:38:30;;;;;;;29.48;17.35;;;;;;;18.35;92.90;99090.52;1671340;84;20966;-62
2022/08/15 03:40:57;;;;;;;29.67;18.35;;;;;;;18.39;93.07;99083.97;1669399;85;21460;-62
2022/08/15 03:43:28;;;;;;;28.38;18.17;;;;;;;18.45;92.84;99086.55;1668963;85;20949;-63
2022/08/15 03:45:59;;;;;;;30.25;20.08;;;;;;;18.45;92.61;99088.69;1666965;85;21046;-63
2022/08/15 03:48:30;;;;;;;30.72;21.05;;;;;;;18.55;93.00;99085.58;1681407;83;20958;-63
2022/08/15 03:51:01;;;;;;;25.88;18.42;;;;;;;18.85;93.65;99085.13;1680580;85;20922;-63
2022/08/15 03:53:32;;;;;;;30.17;19.00;;;;;;;19.18;93.27;99079.82;1677153;84;20947;-63
2022/08/15 03:56:02;;;;;;;26.45;17.52;;;;;;;19.53;93.17;99081.48;1660920;85;20977;-63
2022/08/15 03:58:29;;;;;;;23.47;16.75;;;;;;;19.84;92.81;99080.25;1668829;83;22102;-63
2022/08/15 04:00:58;;;;;;;22.50;16.27;;;;;;;20.19;93.07;99080.47;1684070;85;20957;-63
2022/08/15 04:03:33;;;;;;;22.20;14.90;;;;;;;20.63;92.81;99069.49;1662729;85;20935;-64
2022/08/15 04:06:00;;;;;;;25.20;16.67;;;;;;;21.07;92.20;99073.48;1660900;85;20974;-63
2022/08/15 04:08:32;;;;;;;21.70;16.07;;;;;;;21.49;91.85;99070.13;1663966;85;20974;-63
2022/08/15 04:10:57;;;;;;;19.23;13.83;;;;;;;21.88;91.69;99062.48;1661636;85;20966;-63
2022/08/15 04:13:25;;;;;;;21.97;14.35;;;;;;;22.27;90.87;99061.13;1663097;85;20982;-63
2022/08/15 04:15:55;;;;;;;22.75;14.10;;;;;;;22.66;90.49;99061.81;1682481;84;20966;-64
2022/08/15 04:18:24;;;;;;;18.32;15.43;;;;;;;23.13;90.38;99062.48;1629529;87;21018;-64
2022/08/15 04:20:53;;;;;;;20.80;14.28;;;;;;;23.68;90.14;99061.67;1688006;83;21005;-64
2022/08/15 04:23:20;;;;;;;20.45;13.40;;;;;;;24.21;89.91;99060.09;1663894;85;21031;-64
2022/08/15 04:25:46;;;;;;;22.27;13.68;;;;;;;24.66;88.52;99049.64;1670212;85;20954;-64
2022/08/15 04:28:17;;;;;;;19.62;13.35;;;;;;;24.82;87.48;99052.69;1672261;84;20991;-64
2022/08/15 04:30:47;;;;;;;20.02;13.80;;;;;;;24.99;87.08;99050.19;1675096;85;20935;-64
2022/08/15 04:33:18;;;;;;;25.60;12.95;;;;;;;25.25;86.84;99043.61;1673464;84;20987;-64
2022/08/15 04:35:49;;;;;;;18.80;12.75;;;;;;;25.57;86.24;99051.27;1681375;84;21779;-64
2022/08/15 04:38:16;;;;;;;18.17;11.93;;;;;;;25.91;86.22;99041.85;1681612;83;21563;-64
2022/08/15 04:40:44;;;;;;;18.35;11.38;;;;;;;26.41;86.24;99048.16;1687074;84;20931;-64
2022/08/15 04:43:12;;;;;;;15.43;12.28;;;;;;;26.80;84.84;99036.15;1686239;84;20991;-65
2022/08/15 04:45:40;;;;;;;14.40;10.08;;;;;;;26.98;83.55;99039.19;1689140;84;21074;-64
2022/08/15 04:48:09;;;;;;;13.65;9.78;;;;;;;27.13;83.30;99031.03;1683669;84;21992;-65
2022/08/15 04:50:39;;;;;;;12.82;8.88;;;;;;;27.61;84.58;99032.47;1660272;84;20917;-65
2022/08/15 04:53:07;;;;;;;14.53;8.70;;;;;;;28.39;84.53;99029.95;1666611;84;20969;-65
2022/08/15 04:55:35;;;;;;;11.35;8.50;;;;;;;28.76;83.24;99032.09;1657574;85;21499;-66
2022/08/15 04:58:03;;;;;;;10.50;8.45;;;;;;;29.11;82.33;99033.21;1659948;85;20902;-65
2022/08/15 05:00:32;;;;;;;16.23;8.83;;;;;;;29.13;80.08;99040.56;1690853;83;21090;-66
2022/08/15 05:03:13;;;;;;;15.03;8.70;;;;;;;29.12;79.19;99036.20;1689905;83;20978;-66
2022/08/15 05:05:53;;;;;;;14.98;9.03;;;;;;;28.91;77.85;99039.11;1684990;84;20986;-64
2022/08/15 05:08:22;;;;;;;14.63;8.28;;;;;;;28.83;77.29;99033.94;1664660;84;20862;-66
2022/08/15 05:10:58;;;;;;;14.30;8.13;;;;;;;28.74;76.36;99034.14;1653764;85;21021;-63
2022/08/15 05:13:28;;;;;;;12.75;7.92;;;;;;;28.42;75.47;99032.23;1686243;84;21911;-63
2022/08/15 05:15:58;;;;;;;13.62;8.53;;;;;;;28.26;74.87;99030.25;1686529;84;20856;-64
2022/08/15 05:18:27;;;;;;;12.58;8.58;;;;;;;28.36;75.10;99030.36;1680497;83;20957;-63
2022/08/15 05:20:55;;;;;;;10.20;8.78;;;;;;;28.38;73.80;99026.45;1659847;84;21000;-65
2022/08/15 05:23:25;;;;;;;9.35;7.67;;;;;;;28.12;73.43;99019.19;1685780;83;20962;-65
2022/08/15 05:25:58;;;;;;;13.18;9.08;;;;;;;28.22;73.82;99016.91;1671344;84;21135;-63
2022/08/15 05:28:25;;;;;;;13.58;8.18;;;;;;;28.40;73.29;99020.86;1670102;84;20981;-62
2022/08/15 05:30:54;;;;;;;10.70;8.45;;;;;;;28.46;71.65;99020.09;1664132;84;20994;-63
2022/08/15 05:33:25;;;;;;;18.32;9.15;;;;;;;28.23;70.86;99021.27;1667127;83;21173;-63
2022/08/15 05:35:55;;;;;;;14.30;8.83;;;;;;;28.00;70.26;99022.12;1674848;84;20958;-63
2022/08/15 05:38:36;;;;;;;13.32;8.68;;;;;;;27.84;69.45;99028.17;1669727;84;21047;-63
2022/08/15 05:41:49;;;;;;;14.35;8.53;;;;;;;27.84;70.08;99028.17;1671227;84;20950;-63
2022/08/15 05:44:33;;;;;;;12.45;9.13;;;;;;;28.03;69.50;99025.74;1662565;85;20968;-63
2022/08/15 05:47:25;;;;;;;13.62;8.83;;;;;;;28.16;69.09;99027.13;1680264;83;20914;-63
2022/08/15 05:49:59;;;;;;;13.43;8.25;;;;;;;28.60;69.36;99029.80;1672582;83;20942;-63
2022/08/15 05:53:08;;;;;;;12.53;8.53;;;;;;;29.10;68.88;99024.85;1660813;85;21052;-63
2022/08/15 05:55:55;;;;;;;14.20;8.78;;;;;;;29.41;68.34;99024.16;1631574;85;20942;-63
2022/08/15 05:58:54;;;;;;;10.23;7.65;;;;;;;29.54;67.42;99031.34;1666496;85;20953;-63
2022/08/15 06:01:35;;;;;;;10.78;8.35;;;;;;;29.44;66.71;99024.25;1670414;84;21680;-64
2022/08/15 06:04:13;;;;;;;12.65;7.87;;;;;;;29.59;66.70;99028.84;1668781;85;20895;-64
2022/08/15 06:06:43;;;;;;;9.78;7.92;;;;;;;29.97;66.11;99030.80;1663301;84;21050;-63
2022/08/15 06:09:39;;;;;;;10.60;7.10;;;;;;;29.83;64.95;99026.52;1656896;85;21006;-63
2022/08/15 06:12:17;;;;;;;10.72;7.75;;;;;;;29.74;64.54;99042.58;1669301;84;20958;-63
2022/08/15 06:14:47;;;;;;;14.73;7.97;;;;;;;29.60;63.36;99044.45;1664559;83;20971;-65
2022/08/15 06:17:24;;;;;;;11.88;8.50;;;;;;;29.29;63.06;99044.64;1670506;83;21014;-63
2022/08/15 06:19:52;;;;;;;15.23;7.92;;;;;;;29.17;63.09;99045.81;1664375;85;21459;-64
2022/08/15 06:22:31;;;;;;;18.05;8.00;;;;;;;29.09;62.46;99043.34;1674233;84;21079;-65
2022/08/15 06:25:06;;;;;;;10.13;7.75;;;;;;;29.29;63.07;99036.58;1662477;85;21480;-64
2022/08/15 06:27:56;;;;;;;15.95;8.15;;;;;;;29.56;62.28;99041.37;1673976;85;20926;-63
2022/08/15 06:30:59;;;;;;;9.93;7.92;;;;;;;29.48;61.62;99042.13;1677570;84;20856;-64
2022/08/15 06:33:55;;;;;;;11.85;8.45;;;;;;;29.52;61.41;99046.03;1666440;84;21057;-63
2022/08/15 06:36:51;;;;;;;11.12;7.92;;;;;;;29.61;61.46;99047.47;1661548;84;21257;-64
2022/08/15 06:39:56;;;;;;;11.10;8.25;;;;;;;29.55;59.55;99042.42;1663956;83;20918;-64
2022/08/15 06:42:35;;;;;;;;;;;;;;;28.97;59.57;99050.36;1672775;84;20890;-62
2022/08/15 06:45:21;;;;;;;13.08;7.83;;;;;;;28.82;59.92;99053.76;1679199;85;20107;-63
2022/08/15 06:47:51;;;;;;;10.48;7.28;;;;;;;28.78;59.34;99054.70;1673595;85;21448;-63
2022/08/15 06:50:23;;;;;;;9.98;7.62;;;;;;;28.75;59.61;99057.28;1662551;85;21508;-62
2022/08/15 06:52:54;;;;;;;11.05;8.73;;;;;;;28.82;59.55;99059.13;1664028;85;20954;-62
2022/08/15 06:55:23;;;;;;;11.20;7.12;;;;;;;28.95;59.24;99059.14;1666291;85;20948;-62
2022/08/15 06:58:06;;;;;;;12.23;8.10;;;;;;;28.93;58.99;99058.02;1670095;85;20950;-63
2022/08/15 07:00:47;;;;;;;12.50;7.78;;;;;;;28.76;59.12;99048.20;1667304;84;21015;-63
2022/08/15 07:03:42;;;;;;;12.15;8.08;;;;;;;28.74;58.67;99044.89;1659801;84;21487;-63
2022/08/15 07:06:16;;;;;;;12.55;8.25;;;;;;;28.54;58.91;99049.44;1667441;83;21014;-63
2022/08/15 07:09:12;;;;;;;10.45;7.53;;;;;;;28.59;58.48;99052.30;1639970;85;20997;-63
2022/08/15 07:12:01;;;;;;;15.00;7.93;;;;;;;28.53;58.46;99051.78;1635512;86;20934;-64
2022/08/15 07:14:39;;;;;;;10.95;8.10;;;;;;;28.33;58.00;99051.21;1674868;84;21819;-63
2022/08/15 07:17:45;;;;;;;12.80;7.60;;;;;;;28.13;58.03;99049.00;1672678;85;21041;-63
2022/08/15 07:20:12;;;;;;;8.33;7.15;;;;;;;27.96;58.19;99043.70;1671156;84;21008;-62
2022/08/15 07:22:39;;;;;;;8.95;7.33;;;;;;;27.72;58.19;99059.23;1674025;84;20893;-63
2022/08/15 07:25:18;;;;;;;15.13;8.33;;;;;;;27.57;58.61;99059.38;1672680;84;21001;-62
2022/08/15 07:27:56;;;;;;;10.75;7.72;;;;;;;27.58;58.79;99052.98;1675416;85;21036;-62
2022/08/15 07:30:37;;;;;;;12.98;8.35;;;;;;;27.42;58.84;99054.66;1676163;84;20919;-62
2022/08/15 07:33:04;;;;;;;11.25;9.20;;;;;;;27.23;59.00;99057.53;1677422;84;21603;-62
2022/08/15 07:35:34;;;;;;;10.68;8.63;;;;;;;27.26;59.36;99051.78;1670873;84;20891;-62
2022/08/15 07:38:06;;;;;;;13.53;8.85;;;;;;;27.26;59.54;99051.78;1672715;84;21597;-61
2022/08/15 07:40:43;;;;;;;12.43;8.78;;;;;;;27.30;59.50;99054.88;1667483;83;21169;-61
2022/08/15 07:43:32;;;;;;;14.90;9.08;;;;;;;27.27;59.59;99056.10;1679686;84;21000;-62
2022/08/15 07:46:13;;;;;;;13.75;9.15;;;;;;;27.25;59.93;99058.14;1684849;83;21527;-62
2022/08/15 07:48:42;;;;;;;13.20;8.55;;;;;;;27.35;60.12;99049.25;1692775;84;20936;-61
2022/08/15 07:51:22;;;;;;;14.33;8.65;;;;;;;27.49;60.05;99050.16;1679480;84;20992;-61
2022/08/15 07:54:01;;;;;;;10.45;8.40;;;;;;;27.42;59.80;99051.47;1684678;83;21044;-61
2022/08/15 07:56:31;;;;;;;12.07;8.50;;;;;;;27.19;59.92;99042.85;1668217;84;20961;-61
2022/08/15 07:59:13;;;;;;;11.35;8.65;;;;;;;27.11;60.22;99043.83;1684778;84;20937;-61
2022/08/15 08:01:40;;;;;;;13.20;8.83;;;;;;;27.19;60.33;99042.85;1681906;83;21029;-61
2022/08/15 08:04:18;;;;;;;12.78;9.43;;;;;;;27.18;60.09;99041.20;1683842;84;21489;-61
2022/08/15 08:06:59;;;;;;;14.33;10.05;;;;;;;27.20;60.39;99044.53;1681660;83;21105;-62
2022/08/15 08:09:55;;;;;;;10.65;8.25;;;;;;;27.34;60.30;99042.24;1684794;84;20922;-61
2022/08/15 08:12:53;;;;;;;10.78;9.68;;;;;;;27.49;60.06;99052.02;1678881;84;20997;-62
2022/08/15 08:15:25;;;;;;;15.50;9.43;;;;;;;27.51;60.05;99053.98;1668002;84;22006;-61
2022/08/15 08:18:31;;;;;;;11.18;8.90;;;;;;;27.56;60.00;99046.16;1641517;86;20933;-61
2022/08/15 08:21:05;;;;;;;17.92;9.13;;;;;;;27.58;59.94;99048.13;1664220;84;21863;-62
2022/08/15 08:23:37;;;;;;;14.53;8.93;;;;;;;27.58;59.85;99046.80;1652028;84;20892;-62
2022/08/15 08:26:30;;;;;;;14.05;9.58;;;;;;;27.54;59.52;99045.55;1655705;85;20916;-62
2022/08/15 08:29:19;;;;;;;14.58;9.20;;;;;;;27.54;59.73;99049.05;1649066;85;21428;-62
2022/08/15 08:32:08;;;;;;;15.80;9.68;;;;;;;27.64;59.72;99045.50;1656772;85;20990;-61
2022/08/15 08:35:05;;;;;;;11.00;8.58;;;;;;;27.75;59.76;99040.05;1649393;85;20973;-63
2022/08/15 08:37:55;;;;;;;13.13;9.08;;;;;;;27.93;59.82;99047.60;1659089;85;20955;-62
2022/08/15 08:41:33;;;;;;;14.70;9.08;;;;;;;27.86;59.24;99040.85;1652074;85;20881;-62
2022/08/15 08:44:23;;;;;;;13.60;8.58;;;;;;;27.89;59.49;99044.47;1648456;85;21043;-62
2022/08/15 08:47:28;;;;;;;9.60;8.53;;;;;;;27.93;59.22;99046.78;1667977;84;21528;-62
2022/08/15 08:50:16;;;;;;;10.48;8.65;;;;;;;27.99;59.31;99054.02;1674893;84;21097;-62
2022/08/15 08:53:06;;;;;;;11.08;8.40;;;;;;;28.20;59.35;99040.44;1680395;83;20939;-62
2022/08/15 08:55:47;;;;;;;12.28;9.28;;;;;;;28.34;59.31;99036.78;1681956;84;21420;-62
2022/08/15 08:58:32;;;;;;;13.90;8.95;;;;;;;28.39;58.82;99034.80;1678218;84;20931;-62
2022/08/15 09:00:59;;;;;;;9.03;8.10;;;;;;;28.43;58.95;99036.09;1680897;84;20918;-62
2022/08/15 09:03:31;;;;;;;13.43;9.23;;;;;;;28.34;58.47;99035.44;1692157;84;21896;-62
2022/08/15 09:05:59;;;;;;;12.58;8.53;;;;;;;28.20;58.38;99035.06;1673703;84;20925;-62
2022/08/15 09:08:51;;;;;;;10.03;8.83;;;;;;;28.06;58.36;99041.44;1694100;84;20910;-62
2022/08/15 09:11:35;;;;;;;10.68;8.93;;;;;;;27.82;58.41;99043.64;1652064;85;20941;-62
2022/08/15 09:14:20;;;;;;;13.65;9.00;;;;;;;27.44;58.30;99046.71;1642347;86;20926;-62
2022/08/15 09:16:49;;;;;;;10.08;8.90;;;;;;;27.19;58.44;99042.85;1564092;90;21059;-63
2022/08/15 09:19:27;;;;;;;10.20;8.48;;;;;;;27.03;58.67;99048.47;1576172;90;21662;-63
2022/08/15 09:21:54;;;;;;;17.57;9.35;;;;;;;26.93;58.94;99038.94;1574424;90;21544;-62
2022/08/15 09:24:23;;;;;;;14.70;8.55;;;;;;;26.93;59.23;99046.15;1572238;90;20998;-63
2022/08/15 09:27:32;;;;;;;11.45;8.95;;;;;;;27.08;59.39;99051.41;1574720;90;21070;-63
2022/08/15 09:30:09;;;;;;;10.35;8.38;;;;;;;27.06;59.22;99042.75;1547163;91;21088;-64
2022/08/15 09:33:04;;;;;;;9.60;8.03;;;;;;;26.88;59.26;99046.72;1535159;91;21024;-64
2022/08/15 09:36:03;;;;;;;15.23;9.47;;;;;;;26.90;59.60;99047.36;1554988;91;21016;-63
2022/08/15 09:38:43;;;;;;;11.80;8.18;;;;;;;27.08;59.95;99038.83;1543310;91;21250;-64
2022/08/15 09:41:30;;;;;;;9.58;7.90;;;;;;;27.23;59.83;99036.09;1544220;90;21052;-63
2022/08/15 09:44:20;;;;;;;9.75;7.85;;;;;;;27.43;59.95;99034.34;1556618;91;21175;-63
2022/08/15 09:47:00;;;;;;;11.68;8.05;;;;;;;27.80;60.06;99029.59;1545527;90;21493;-63
2022/08/15 09:49:44;;;;;;;12.88;8.40;;;;;;;28.23;59.93;99024.45;1546824;91;21014;-64
2022/08/15 09:52:27;;;;;;;10.72;8.05;;;;;;;28.64;59.76;99014.92;1557726;90;21000;-61
2022/08/15 09:55:19;;;;;;;10.60;8.28;;;;;;;28.76;59.11;99021.83;1606638;87;20979;-62
2022/08/15 09:57:52;;;;;;;10.00;8.30;;;;;;;28.74;58.61;99004.59;1621926;87;21882;-62
2022/08/15 10:00:42;;;;;;;10.03;8.25;;;;;;;28.76;58.23;99010.59;1622277;87;20991;-62
2022/08/15 10:03:49;;;;;;;8.00;7.25;;;;;;;28.78;58.01;99005.82;1621044;87;20995;-61
2022/08/15 10:06:23;;;;;;;8.90;7.28;;;;;;;28.83;57.66;98994.98;1632434;87;20992;-62
2022/08/15 10:09:02;;;;;;;13.88;8.25;;;;;;;28.73;56.86;99001.58;1622385;87;20963;-62
2022/08/15 10:11:46;;;;;;;12.00;8.38;;;;;;;28.42;56.83;98995.98;1622193;87;21204;-61
2022/08/15 10:14:32;;;;;;;9.80;7.92;;;;;;;28.36;57.19;98991.44;1622183;87;20996;-61
2022/08/15 10:17:04;;;;;;;8.55;7.50;;;;;;;28.39;56.91;98989.68;1617038;87;21553;-62
2022/08/15 10:19:36;;;;;;;15.15;8.23;;;;;;;28.27;56.48;98995.66;1616648;87;20998;-62
2022/08/15 10:22:27;;;;;;;12.50;7.60;;;;;;;28.22;56.85;98994.09;1625649;87;20967;-62
2022/08/15 10:25:20;;;;;;;10.45;8.55;;;;;;;28.52;56.93;98984.36;1632998;87;21099;-62
2022/08/15 10:28:14;;;;;;;10.23;8.40;;;;;;;28.62;56.71;98982.06;1631416;87;20997;-61
2022/08/15 10:31:04;;;;;;;12.30;7.92;;;;;;;28.74;56.18;98983.11;1622663;86;21021;-62
2022/08/15 10:33:42;;;;;;;15.28;7.95;;;;;;;29.09;56.73;98985.55;1653385;85;21507;-62
2022/08/15 10:36:17;;;;;;;10.08;7.67;;;;;;;29.41;56.46;98977.63;1652200;85;21496;-61
2022/08/15 10:38:49;;;;;;;8.48;7.58;;;;;;;29.55;56.28;98979.22;1672495;85;21064;-61
2022/08/15 10:41:56;;;;;;;9.63;7.62;;;;;;;29.68;56.18;98982.91;1662806;85;21007;-60
2022/08/15 10:44:49;;;;;;;11.55;8.08;;;;;;;29.74;56.11;98982.05;1679152;83;20943;-61
2022/08/15 10:47:33;;;;;;;11.43;7.50;;;;;;;29.73;56.00;98983.09;1562663;91;21004;-61
2022/08/15 10:50:26;;;;;;;8.20;7.37;;;;;;;29.62;55.74;98988.06;1561406;91;21008;-63
2022/08/15 10:53:28;;;;;;;14.85;7.50;;;;;;;29.51;55.40;98977.98;1557773;90;21118;-61
2022/08/15 10:56:17;;;;;;;9.40;8.45;;;;;;;29.50;55.59;98975.52;1562319;90;20966;-61
2022/08/15 10:58:45;;;;;;;10.00;8.60;;;;;;;29.19;55.23;98977.07;1527729;92;21052;-61
2022/08/15 11:01:20;;;;;;;9.98;8.83;;;;;;;28.95;55.41;98983.90;1481369;96;20998;-61
2022/08/15 11:03:55;;;;;;;9.15;8.25;;;;;;;29.03;55.35;98975.65;1483477;94;21067;-61
2022/08/15 11:06:23;;;;;;;9.55;8.65;;;;;;;28.95;55.31;98978.52;1522322;93;21042;-62
2022/08/15 11:08:58;;;;;;;10.65;9.40;;;;;;;29.04;55.45;98969.23;1519893;93;21055;-61
2022/08/15 11:11:28;;;;;;;9.95;8.33;;;;;;;28.84;54.68;98966.55;1477495;94;21045;-61
2022/08/15 11:14:00;;;;;;;13.32;9.13;;;;;;;28.52;55.18;98973.61;1468687;96;21511;-61
2022/08/15 11:16:35;;;;;;;10.00;9.00;;;;;;;28.70;55.49;98974.32;1500064;93;20988;-61
2022/08/15 11:19:19;;;;;;;12.63;8.63;;;;;;;28.60;54.90;98973.41;1518611;93;21268;-61
2022/08/15 11:21:55;;;;;;;12.00;9.05;;;;;;;28.61;55.25;98975.05;1497719;91;21602;-61
2022/08/15 11:24:33;;;;;;;13.30;9.10;;;;;;;28.52;55.46;98974.95;1523998;92;20970;-61
2022/08/15 11:27:24;;;;;;;12.75;9.50;;;;;;;28.67;55.68;98968.02;1549235;91;20989;-62
2022/08/15 11:29:49;;;;;;;25.23;9.65;;;;;;;28.92;55.71;98969.55;1547203;91;21078;-61
2022/08/15 11:32:32;;;;;;;13.55;9.18;;;;;;;29.15;55.48;98971.27;1543479;91;21075;-63
2022/08/15 11:35:03;;;;;;;11.03;8.53;;;;;;;29.22;55.14;98974.77;1572538;88;21252;-62
2022/08/15 11:37:34;;;;;;;34.53;25.15;;;;;;;29.28;55.02;98974.97;1587038;88;21031;-62
2022/08/15 11:40:06;;;;;;;13.93;8.90;;;;;;;29.32;55.02;98964.09;1594516;88;22055;-63
2022/08/15 11:42:39;;;;;;;12.53;9.00;;;;;;;29.32;54.39;98968.12;1566344;89;20995;-61
2022/08/15 11:45:22;;;;;;;10.50;9.50;;;;;;;29.30;54.29;98971.56;1573731;89;21472;-61
2022/08/15 11:47:53;;;;;;;17.62;9.60;;;;;;;29.40;54.63;98959.30;1572238;89;20972;-61
2022/08/15 11:50:33;;;;;;;12.73;9.20;;;;;;;29.70;54.55;98953.94;1572587;89;20911;-61
2022/08/15 11:53:04;;;;;;;11.28;9.00;;;;;;;29.83;54.16;98951.18;1578562;89;21592;-61
2022/08/15 11:55:39;;;;;;;9.75;8.40;;;;;;;29.77;53.80;98951.52;1552802;89;21013;-62
2022/08/15 11:58:14;;;;;;;9.05;8.13;;;;;;;29.69;53.58;98958.98;1598471;85;22012;-61
2022/08/15 12:00:52;;;;;;;9.03;8.03;;;;;;;29.48;53.48;98950.17;1643815;85;20995;-62
2022/08/15 12:03:32;;;;;;;11.97;8.78;;;;;;;29.51;53.77;98959.15;1643336;86;20987;-61
2022/08/15 12:06:16;;;;;;;12.45;7.53;;;;;;;29.35;53.52;98956.45;1649511;85;20957;-61
2022/08/15 12:08:46;;;;;;;8.88;7.70;;;;;;;29.29;53.58;98953.76;1624732;86;21591;-61
2022/08/15 12:11:24;;;;;;;10.32;7.42;;;;;;;29.33;53.62;98953.66;1614793;87;21051;-61